Latest Weather Observations for Wulungurru (Kintore)

IDD60801

Issued at 9:31 pm CST Sunday 2 August 2015 (issued every 30 minutes, with the page automatically refreshed every 10 minutes)

About weather observations | Map of weather stations | Latest weather observations for NT | Other Formats
Station Details ID: 015664 Name: WALUNGURRU AIRPORT Lat: -23.27 Lon: 129.38 Height: 454.3 m
Data from the previous 72 hours. | See also: Recent months at Wulungurru (Kintore)
Date/Time
CST
Temp
°C
App
Temp
°C
Dew
Point
Rel
Hum
%
Delta-T
°C
Wind Press
QNH
hPa
Press
MSL
hPa
Rain
since 9 am
mm
Dir
 
Spd
km/h
Gust
km/h
Spd
kts
Gust
kts
02/09:30pm 20.5 14.4 6.4 40 7.2 SE 28 41 15 22 1022.8 - 0.0
02/09:00pm 20.8 14.3 6.4 39 7.4 SE 30 41 16 22 1022.6 1022.0 0.0
02/08:30pm 21.1 15.6 5.9 37 7.7 SE 24 35 13 19 1022.3 - 0.0
02/08:00pm 21.5 16.4 5.8 36 8.0 SE 22 28 12 15 1022.0 - 0.0
02/07:30pm 22.3 17.5 5.7 34 8.5 SSE 20 30 11 16 1021.6 - 0.0
02/07:00pm 23.2 18.4 5.6 32 9.1 SSE 20 30 11 16 1021.2 - 0.0
02/06:30pm 24.1 18.9 5.5 30 9.6 SSE 22 32 12 17 1020.7 - 0.0
02/06:00pm 25.3 20.0 5.0 27 10.5 SSE 22 30 12 16 1020.3 1019.7 0.0
02/05:30pm 26.4 21.4 4.8 25 11.2 SSE 20 30 11 16 1020.0 - 0.0
02/05:00pm 27.1 22.1 4.8 24 11.6 SSE 20 30 11 16 1019.8 - 0.0
02/04:30pm 27.9 23.5 4.9 23 12.0 S 17 24 9 13 1019.7 - 0.0
02/04:00pm 27.5 22.7 4.5 23 11.9 SSE 19 32 10 17 1019.6 - 0.0
02/03:30pm 27.7 22.9 4.7 23 12.0 S 19 28 10 15 1019.6 - 0.0
02/03:00pm 27.4 23.0 4.5 23 11.9 SE 17 28 9 15 1019.7 1019.0 0.0
02/02:30pm 27.5 22.6 5.1 24 11.7 ESE 20 32 11 17 1019.8 - 0.0
02/02:00pm 27.2 21.9 4.9 24 11.6 SSE 22 32 12 17 1019.9 - 0.0
02/01:30pm 27.1 21.9 5.4 25 11.4 SSE 22 33 12 18 1020.3 - 0.0
02/01:00pm 26.7 20.8 5.6 26 11.1 SE 26 41 14 22 1020.7 - 0.0
02/12:30pm 26.1 20.2 5.7 27 10.7 SE 26 35 14 19 1020.9 - 0.0
02/12:00pm 25.6 19.7 5.8 28 10.4 SE 26 35 14 19 1021.2 1020.5 0.0
02/11:30am 24.7 18.5 6.0 30 9.8 SE 28 37 15 20 1021.5 - 0.0
02/11:00am 23.2 16.2 6.0 33 8.9 SE 32 43 17 23 1021.6 - 0.0
02/10:30am 21.7 14.1 6.0 36 8.1 SE 35 48 19 26 1021.6 - 0.0
02/10:00am 20.7 13.6 6.3 39 7.4 SE 33 44 18 24 1021.4 - 0.0
02/09:30am 19.4 12.3 6.2 42 6.7 SE 33 46 18 25 1021.0 - 0.0
02/09:00am 18.0 11.4 5.9 45 6.0 SSE 30 41 16 22 1020.7 1020.1 0.0
02/08:30am 17.1 10.0 5.4 46 5.8 SSE 32 43 17 23 1020.5 - 0.0
02/08:00am 16.7 9.4 5.6 48 5.5 SSE 33 44 18 24 1020.0 - 0.0
02/07:30am 15.9 9.1 4.9 48 5.3 SSE 30 39 16 21 1019.8 - 0.0
02/07:00am 16.4 8.9 4.4 45 5.8 SSE 33 52 18 28 1019.5 - 0.0
02/06:59am 16.5 9.0 4.5 45 5.8 SSE 33 52 18 28 1019.5 - 0.0
02/06:30am 16.2 8.8 3.9 44 5.8 SSE 32 43 17 23 1019.0 - 0.0
02/06:00am 15.8 9.3 2.9 42 6.0 SSE 26 33 14 18 1018.8 1018.1 0.0
02/05:30am 16.0 8.8 1.0 36 6.7 SSE 28 35 15 19 1018.5 - 0.0
02/05:00am 16.8 10.2 -0.4 31 7.5 SSE 24 32 13 17 1018.4 - 0.0
02/04:30am 15.8 9.9 -5.8 22 8.3 SSE 17 24 9 13 1018.2 - 0.0
02/04:00am 15.0 8.7 -5.9 23 8.0 S 19 24 10 13 1018.3 - 0.0
02/03:30am 11.3 7.4 -7.0 27 6.5 S 6 9 3 5 1018.2 - 0.0
02/03:00am 13.1 7.9 -5.9 26 7.1 WSW 13 20 7 11 1018.2 1017.5 0.0
02/02:30am 12.2 8.2 -7.2 25 6.9 ESE 6 7 3 4 1017.8 - 0.0
02/02:00am 13.1 9.0 -6.5 25 7.2 E 7 7 4 4 1017.8 - 0.0
02/01:30am 12.8 8.9 -6.7 25 7.1 ESE 6 7 3 4 1017.9 - 0.0
02/01:00am 12.6 8.7 -6.9 25 7.1 E 6 7 3 4 1018.0 - 0.0
02/12:30am 13.7 9.8 -7.0 23 7.6 E 6 6 3 3 1018.2 - 0.0
02/12:00am 12.9 8.9 -7.2 24 7.3 ENE 6 7 3 4 1018.2 1017.5 0.0
 
Date/Time
CST
Temp
°C
App
Temp
°C
Dew
Point
Rel
Hum
%
Delta-T
°C
Wind Press
QNH
hPa
Press
MSL
hPa
Rain
since 9 am
mm
Dir
 
Spd
km/h
Gust
km/h
Spd
kts
Gust
kts
01/11:30pm 13.4 9.2 -7.3 23 7.5 ENE 7 9 4 5 1018.3 - 0.0
01/11:00pm 14.0 9.8 -7.4 22 7.8 ENE 7 9 4 5 1018.2 - 0.0
01/10:30pm 14.6 10.5 -6.8 22 8.0 ENE 7 9 4 5 1018.2 - 0.0
01/10:00pm 14.4 10.2 -8.2 20 8.1 E 7 7 4 4 1018.1 - 0.0
01/09:30pm 15.4 10.8 -8.1 19 8.6 ENE 9 9 5 5 1017.9 - 0.0
01/09:00pm 17.7 13.2 -6.9 18 9.4 ENE 9 11 5 6 1017.9 1017.2 0.0
01/08:30pm 18.8 13.9 -7.5 16 10.1 NE 11 13 6 7 1017.6 - 0.0
01/08:00pm 19.6 14.6 -7.7 15 10.5 NNE 11 13 6 7 1017.1 - 0.0
01/07:30pm 19.5 14.8 -8.7 14 10.7 N 9 9 5 5 1017.0 - 0.0
01/07:00pm 22.0 17.0 -8.7 12 11.9 N 11 13 6 7 1016.9 - 0.0
01/06:30pm 24.2 19.1 -9.3 10 13.2 NNW 11 13 6 7 1016.8 - 0.0
01/06:00pm 26.9 20.7 -8.6 9 14.5 NW 17 20 9 11 1016.6 1015.9 0.0
01/05:30pm 27.7 21.0 -8.0 9 14.9 WNW 20 28 11 15 1016.6 - 0.0
01/05:00pm 28.3 21.6 -7.6 9 15.1 WNW 20 26 11 14 1016.3 - 0.0
01/04:30pm 28.5 21.5 -7.4 9 15.2 WNW 22 32 12 17 1016.1 - 0.0
01/04:00pm 28.6 21.1 -8.8 8 15.5 NW 24 32 13 17 1016.1 - 0.0
01/03:30pm 29.5 23.0 -8.2 8 15.9 WNW 19 28 10 15 1016.3 - 0.0
01/03:00pm 29.1 22.6 -8.5 8 15.7 NW 19 35 10 19 1016.5 1015.8 0.0
01/02:30pm 29.0 22.3 -8.5 8 15.7 WNW 20 28 11 15 1016.8 - 0.0
01/02:00pm 27.9 21.3 -9.4 8 15.2 NNW 19 30 10 16 1017.1 - 0.0
01/01:30pm 27.8 20.2 -9.4 8 15.1 NW 24 32 13 17 1017.6 - 0.0
01/01:00pm 27.4 20.2 -9.7 8 14.9 NNW 22 33 12 18 1018.3 - 0.0
01/12:30pm 27.4 20.6 -9.7 8 14.9 NNW 20 30 11 16 1018.9 - 0.0
01/12:00pm 25.7 18.8 -11.0 8 14.2 N 20 28 11 15 1019.3 1018.6 0.0
01/11:30am 24.7 18.0 -10.3 9 13.6 N 19 28 10 15 1019.7 - 0.0
01/11:00am 23.2 17.6 -11.4 9 12.9 N 13 20 7 11 1019.9 - 0.0
01/10:30am 21.8 16.2 -11.1 10 12.2 N 13 19 7 10 1019.9 - 0.0
01/10:00am 19.9 14.7 -11.4 11 11.3 N 11 15 6 8 1019.6 - 0.0
01/09:30am 19.0 13.7 -12.1 11 10.9 NNE 11 15 6 8 1019.3 - 0.0
01/09:00am 18.1 12.8 -12.8 11 10.5 NNE 11 15 6 8 1019.1 1018.4 0.0
01/08:30am 17.2 11.5 -12.4 12 10.1 NNE 13 19 7 10 1018.6 - 0.0
01/08:00am 14.5 8.8 -11.8 15 8.8 NE 13 17 7 9 1018.3 - 0.0
01/07:30am 12.7 7.4 -11.7 17 8.0 ENE 11 13 6 7 1018.2 - 0.0
01/07:00am 13.2 8.0 -11.3 17 8.1 ENE 11 15 6 8 1018.0 - 0.0
01/06:30am 11.6 6.3 -11.9 18 7.5 ENE 11 13 6 7 1017.8 - 0.0
01/06:00am 10.7 5.5 -11.3 20 7.0 ENE 11 13 6 7 1017.8 1017.1 0.0
01/05:30am 11.4 6.5 -11.4 19 7.4 NE 9 11 5 6 1017.6 - 0.0
01/05:00am 12.1 7.6 -11.5 18 7.7 NE 7 9 4 5 1017.5 - 0.0
01/04:30am 12.4 7.9 -11.9 17 7.9 ENE 7 11 4 6 1017.6 - 0.0
01/04:00am 12.7 7.8 -12.4 16 8.1 NE 9 9 5 5 1017.6 - 0.0
01/03:30am 14.0 9.5 -12.2 15 8.6 NE 7 9 4 5 1017.6 - 0.0
01/03:00am 12.8 7.9 -11.6 17 8.0 ENE 9 9 5 5 1017.6 1016.9 0.0
01/02:30am 11.9 7.4 -12.3 17 7.7 ENE 7 9 4 5 1017.8 - 0.0
01/02:00am 14.2 9.7 -11.2 16 8.5 NE 7 11 4 6 1018.0 - 0.0
01/01:30am 11.2 6.7 -11.5 19 7.3 ENE 7 9 4 5 1018.0 - 0.0
01/01:00am 11.9 7.4 -11.6 18 7.6 ENE 7 7 4 4 1018.0 - 0.0
01/12:30am 12.0 7.5 -11.5 18 7.6 ENE 7 9 4 5 1017.9 - 0.0
01/12:00am 12.2 7.7 -11.4 18 7.7 ENE 7 9 4 5 1018.2 1017.5 0.0
 
Date/Time
CST
Temp
°C
App
Temp
°C
Dew
Point
Rel
Hum
%
Delta-T
°C
Wind Press
QNH
hPa
Press
MSL
hPa
Rain
since 9 am
mm
Dir
 
Spd
km/h
Gust
km/h
Spd
kts
Gust
kts
31/11:30pm 13.2 8.9 -12.0 16 8.2 E 6 7 3 4 1018.3 - 0.0
31/11:00pm 13.6 10.4 -11.7 16 8.4 CALM 0 0 0 0 1018.3 - 0.0
31/10:30pm 15.8 11.4 -12.5 13 9.5 ESE 6 7 3 4 1018.3 - 0.0
31/10:00pm 16.0 11.6 -12.4 13 9.5 ENE 6 7 3 4 1018.2 - 0.0
31/09:30pm 16.4 12.1 -12.1 13 9.7 ENE 6 7 3 4 1018.3 - 0.0
31/09:00pm 18.5 15.3 -12.5 11 10.7 CALM 0 7 0 4 1018.2 1018.0 0.0
31/08:30pm 17.5 13.5 -12.2 12 10.2 E 4 6 2 3 1017.9 - 0.0
31/08:00pm 19.5 15.1 -12.9 10 11.3 NE 6 11 3 6 1017.5 - 0.0
31/07:30pm 19.7 15.1 -12.7 10 11.3 N 7 9 4 5 1017.2 - 0.0
31/07:00pm 22.4 17.0 -13.4 8 12.8 N 11 13 6 7 1017.0 - 0.0
31/06:30pm 25.1 19.7 -13.1 7 14.1 N 11 15 6 8 1016.8 - 0.0
31/06:00pm 27.8 21.7 -13.0 6 15.5 N 15 19 8 10 1016.7 1016.4 0.0
31/05:30pm 28.7 22.6 -12.4 6 16.0 N 15 20 8 11 1016.5 - 0.0
31/05:00pm 28.8 22.0 -12.3 6 16.0 N 19 28 10 15 1016.3 - 0.0
31/04:30pm 29.4 22.6 -11.9 6 16.3 NNE 19 32 10 17 1016.6 - 0.0
31/04:00pm 29.5 23.3 -14.0 5 16.6 NNE 15 26 8 14 1016.7 - 0.0
31/03:30pm 29.4 22.9 -14.1 5 16.5 NNE 17 30 9 16 1017.0 - 0.0
31/03:00pm 29.5 22.7 -11.8 6 16.3 NNE 19 28 10 15 1017.5 1017.3 0.0
31/02:30pm 29.1 22.1 -12.1 6 16.2 NNE 20 30 11 16 1018.0 - 0.0
31/02:00pm 29.2 22.4 -12.0 6 16.2 NNE 19 28 10 15 1018.6 - 0.0
31/01:30pm 28.3 21.5 -12.7 6 15.8 NNE 19 28 10 15 1019.3 - 0.0
31/01:00pm 27.4 20.6 -11.4 7 15.2 NNE 19 28 10 15 1020.0 - 0.0
31/12:30pm 27.0 20.2 -11.7 7 15.0 NNE 19 24 10 13 1020.6 - 0.0
31/12:00pm 26.2 19.8 -12.3 7 14.6 NE 17 24 9 13 1021.2 1021.0 0.0
31/11:30am 25.8 19.5 -10.9 8 14.2 NNE 17 22 9 12 1021.5 - 0.0
31/11:00am 24.0 17.2 -12.2 8 13.4 NE 19 24 10 13 1021.9 - 0.0
31/10:30am 22.4 16.0 -12.0 9 12.6 NE 17 20 9 11 1022.2 - 0.0
31/10:00am 20.8 14.5 -10.7 11 11.6 NE 17 22 9 12 1022.3 - 0.0
31/09:30am 19.1 12.8 -10.9 12 10.8 ENE 17 20 9 11 1022.2 - 0.0
31/09:00am 16.9 12.1 -9.9 15 9.6 NE 9 13 5 7 1022.1 1021.9 0.0
31/08:30am 12.9 9.5 -10.1 19 7.8 N 2 7 1 4 1021.8 - 0.0
31/08:00am 11.3 6.5 -10.2 21 7.1 NNW 9 13 5 7 1021.4 - 0.0
31/07:30am 12.9 7.7 -10.8 18 7.9 ESE 11 13 6 7 1020.8 - 0.0
31/07:00am 12.8 7.6 -10.9 18 7.9 ESE 11 11 6 6 1020.6 - 0.0
31/06:30am 13.6 8.3 -11.7 16 8.4 ESE 11 13 6 7 1020.3 - 0.0
31/06:00am 14.3 9.5 -11.1 16 8.6 SE 9 11 5 6 1020.1 1019.9 0.0
31/05:30am 15.1 10.8 -11.3 15 9.0 SSE 6 9 3 5 1019.9 - 0.0
31/05:00am 15.7 10.8 -11.7 14 9.3 S 9 13 5 7 1019.9 - 0.0
31/04:30am 15.8 11.3 -11.6 14 9.3 SSE 7 11 4 6 1020.0 - 0.0
31/04:00am 15.8 10.9 -12.5 13 9.5 SSE 9 11 5 6 1020.2 - 0.0
31/03:30am 16.4 11.1 -12.1 13 9.7 SSE 11 15 6 8 1020.6 - 0.0
31/03:00am 15.9 10.6 -11.5 14 9.3 S 11 13 6 7 1020.9 1020.8 0.0
31/02:30am 16.1 11.2 -12.3 13 9.6 SSE 9 15 5 8 1021.0 - 0.0
31/02:00am 16.1 11.2 -12.3 13 9.6 SSE 9 11 5 6 1021.2 - 0.0
31/01:30am 16.7 11.0 -11.8 13 9.8 SSE 13 13 7 7 1021.5 - 0.0
31/01:00am 16.8 11.2 -10.8 14 9.7 SSE 13 15 7 8 1021.7 - 0.0
31/12:30am 17.6 12.4 -10.2 14 10.0 SSE 11 13 6 7 1021.9 - 0.0
31/12:00am 16.3 10.9 -8.8 17 9.1 SSE 13 15 7 8 1022.1 1021.9 0.0
 
Date/Time
CST
Temp
°C
App
Temp
°C
Dew
Point
Rel
Hum
%
Delta-T
°C
Wind Press
QNH
hPa
Press
MSL
hPa
Rain
since 9 am
mm
Dir
 
Spd
km/h
Gust
km/h
Spd
kts
Gust
kts
30/11:30pm 15.4 10.7 -9.5 17 8.8 E 9 13 5 7 1022.3 - 0.0
30/11:00pm 18.1 12.3 -8.9 15 10.0 SSE 15 17 8 9 1022.4 - 0.0
30/10:30pm 17.9 12.1 -9.1 15 9.9 SSE 15 19 8 10 1022.3 - 0.0
30/10:00pm 16.1 10.3 -8.2 18 8.9 SSE 15 17 8 9 1022.3 - 0.0

Other Formats:

Comma delimited format used in spreadsheet applications
http://www.bom.gov.au/fwo/IDD60801/IDD60801.94321.axf

JavaScript Object Notation format (JSON) in row-major order
http://www.bom.gov.au/fwo/IDD60801/IDD60801.94321.json